createdAt,value
2018-12-16T00:02:26.689Z,-3.20
2018-12-16T00:04:59.361Z,-3.10
2018-12-16T00:07:31.499Z,-3.10
2018-12-16T00:10:04.000Z,-3.10
2018-12-16T00:12:36.017Z,-3.20
2018-12-16T00:15:06.596Z,-3.20
2018-12-16T00:17:37.117Z,-3.10
2018-12-16T00:20:07.615Z,-3.20
2018-12-16T00:22:40.019Z,-3.20
2018-12-16T00:25:10.424Z,-3.20
2018-12-16T00:27:40.790Z,-3.20
2018-12-16T00:30:11.192Z,-3.10
2018-12-16T00:32:41.591Z,-3.00
2018-12-16T00:35:13.052Z,-3.10
2018-12-16T00:37:43.455Z,-3.10
2018-12-16T00:40:13.836Z,-3.10
2018-12-16T00:42:45.772Z,-3.10
2018-12-16T00:45:16.238Z,-3.00
2018-12-16T00:47:47.576Z,-3.00
2018-12-16T00:50:26.618Z,-3.00
2018-12-16T00:52:57.038Z,-3.10
2018-12-16T00:55:27.410Z,-3.10
2018-12-16T00:57:57.825Z,-3.10
2018-12-16T01:00:29.611Z,-3.10
2018-12-16T01:03:01.446Z,-3.00
2018-12-16T01:05:37.404Z,-3.00
2018-12-16T01:08:09.519Z,-3.00
2018-12-16T01:10:39.936Z,-3.00
2018-12-16T01:13:10.304Z,-3.00
2018-12-16T01:15:40.792Z,-3.00
2018-12-16T01:18:11.253Z,-3.00
2018-12-16T01:20:41.644Z,-2.90
2018-12-16T01:23:12.028Z,-2.80
2018-12-16T01:25:42.436Z,-2.80
2018-12-16T01:28:12.833Z,-2.90
2018-12-16T01:30:43.201Z,-2.90
2018-12-16T01:33:13.605Z,-2.80
2018-12-16T01:35:43.969Z,-2.70
2018-12-16T01:38:14.382Z,-2.70
2018-12-16T01:40:44.755Z,-2.70
2018-12-16T01:43:15.218Z,-2.70
2018-12-16T01:45:45.591Z,-2.70
2018-12-16T01:48:15.996Z,-2.70
2018-12-16T01:50:46.377Z,-2.70
2018-12-16T01:53:16.775Z,-2.60
2018-12-16T01:55:47.161Z,-2.60
2018-12-16T01:58:17.539Z,-2.60
2018-12-16T02:00:47.939Z,-2.60
2018-12-16T02:03:18.319Z,-2.50
2018-12-16T02:05:48.817Z,-2.50
2018-12-16T02:08:19.188Z,-2.60
2018-12-16T02:10:49.654Z,-2.60
2018-12-16T02:13:20.031Z,-2.50
2018-12-16T02:15:51.340Z,-2.50
2018-12-16T02:18:21.736Z,-2.50
2018-12-16T02:20:52.156Z,-2.50
2018-12-16T02:23:22.554Z,-2.50
2018-12-16T02:25:52.924Z,-2.50
2018-12-16T02:28:23.329Z,-2.40
2018-12-16T02:30:53.856Z,-2.40
2018-12-16T02:33:24.945Z,-2.50
2018-12-16T02:35:55.354Z,-2.40
2018-12-16T02:38:25.966Z,-2.50
2018-12-16T02:40:56.347Z,-2.40
2018-12-16T02:43:26.730Z,-2.40
2018-12-16T02:45:58.067Z,-2.40
2018-12-16T02:48:34.162Z,-2.30
2018-12-16T02:51:04.972Z,-2.30
2018-12-16T02:53:37.131Z,-2.20
2018-12-16T02:56:13.284Z,-2.20
2018-12-16T02:58:49.608Z,-2.20
2018-12-16T03:01:20.014Z,-2.20
2018-12-16T03:03:50.397Z,-2.20
2018-12-16T03:06:24.391Z,-2.20
2018-12-16T03:08:54.770Z,-2.20
2018-12-16T03:11:25.149Z,-2.20
2018-12-16T03:13:55.548Z,-2.20
2018-12-16T03:16:25.989Z,-2.30
2018-12-16T03:18:56.637Z,-2.40
2018-12-16T03:21:27.047Z,-2.40
2018-12-16T03:23:57.420Z,-2.30
2018-12-16T03:26:27.812Z,-2.30
2018-12-16T03:29:06.826Z,-2.30
2018-12-16T03:31:37.511Z,-2.20
2018-12-16T03:34:12.594Z,-2.20
2018-12-16T03:36:44.092Z,-2.20
2018-12-16T03:39:14.563Z,-2.20
2018-12-16T03:41:45.001Z,-2.10
2018-12-16T03:44:15.381Z,-2.10
2018-12-16T03:46:45.770Z,-2.20
2018-12-16T03:49:16.148Z,-2.20
2018-12-16T03:51:46.543Z,-2.20
2018-12-16T03:54:16.941Z,-2.10
2018-12-16T03:56:47.385Z,-2.20
2018-12-16T03:59:18.226Z,-2.10
2018-12-16T04:01:54.021Z,-2.20
2018-12-16T04:04:24.843Z,-2.20
2018-12-16T04:06:55.225Z,-2.30
2018-12-16T04:09:25.691Z,-2.30
2018-12-16T04:11:56.319Z,-2.30
2018-12-16T04:14:26.802Z,-2.40
2018-12-16T04:16:57.164Z,-2.40
2018-12-16T04:19:27.601Z,-2.50
2018-12-16T04:21:57.997Z,-2.50
2018-12-16T04:24:28.377Z,-2.60
2018-12-16T04:26:58.767Z,-2.70
2018-12-16T04:29:29.129Z,-2.70
2018-12-16T04:32:00.532Z,-2.70
2018-12-16T04:34:30.897Z,-2.80
2018-12-16T04:37:01.309Z,-2.70
2018-12-16T04:39:31.783Z,-2.80
2018-12-16T04:42:02.190Z,-2.80
2018-12-16T04:44:32.557Z,-2.80
2018-12-16T04:47:03.005Z,-2.80
2018-12-16T04:49:33.382Z,-2.80
2018-12-16T04:52:04.070Z,-2.80
2018-12-16T04:54:34.453Z,-2.80
2018-12-16T04:57:04.925Z,-2.70
2018-12-16T04:59:35.339Z,-2.70
2018-12-16T05:02:05.713Z,-2.80
2018-12-16T05:04:36.108Z,-2.80
2018-12-16T05:07:06.511Z,-2.80
2018-12-16T05:09:36.908Z,-2.80
2018-12-16T05:15:18.707Z,-2.70
2018-12-16T05:17:49.101Z,-2.50
2018-12-16T05:20:19.492Z,-2.60
2018-12-16T05:22:49.899Z,-2.60
2018-12-16T05:25:20.316Z,-2.50
2018-12-16T05:27:50.686Z,-2.60
2018-12-16T05:30:21.111Z,-2.70
2018-12-16T05:32:58.487Z,-2.70
2018-12-16T05:35:46.119Z,-2.70
2018-12-16T05:38:34.525Z,-2.60
2018-12-16T05:41:04.996Z,-2.60
2018-12-16T05:43:35.380Z,-2.60
2018-12-16T05:46:05.840Z,-2.60
2018-12-16T05:48:36.610Z,-2.50
2018-12-16T05:51:07.448Z,-2.50
2018-12-16T05:53:39.341Z,-2.50
2018-12-16T05:56:11.616Z,-2.40
2018-12-16T05:58:44.911Z,-2.40
2018-12-16T06:01:20.074Z,-2.40
2018-12-16T06:04:01.862Z,-2.40
2018-12-16T06:06:43.865Z,-2.30
2018-12-16T06:09:17.850Z,-2.30
2018-12-16T06:11:50.334Z,-2.30
2018-12-16T06:14:21.603Z,-2.30
2018-12-16T06:16:59.698Z,-2.30
2018-12-16T06:19:30.224Z,-2.30
2018-12-16T06:22:12.886Z,-2.30
2018-12-16T06:24:59.344Z,-2.30
2018-12-16T06:27:30.122Z,-2.30
2018-12-16T06:30:01.969Z,-2.40
2018-12-16T06:32:32.774Z,-2.20
2018-12-16T06:35:04.696Z,-2.10
2018-12-16T06:37:37.352Z,-2.00
2018-12-16T06:40:10.840Z,-2.00
2018-12-16T06:42:42.908Z,-2.00
2018-12-16T06:45:13.331Z,-2.00
2018-12-16T06:47:43.735Z,-2.00
2018-12-16T06:50:14.105Z,-2.00
2018-12-16T06:52:44.525Z,-2.00
2018-12-16T06:55:14.901Z,-2.10
2018-12-16T06:58:01.044Z,-2.10
2018-12-16T07:00:31.434Z,-2.00
2018-12-16T07:03:02.091Z,-2.00
2018-12-16T07:05:32.463Z,-2.00
2018-12-16T07:08:02.886Z,-1.90
2018-12-16T07:10:33.336Z,-2.00
2018-12-16T07:13:05.210Z,-2.00
2018-12-16T07:15:35.973Z,-2.00
2018-12-16T07:18:06.648Z,-2.00
2018-12-16T07:20:37.873Z,-2.00
2018-12-16T07:23:08.533Z,-1.90
2018-12-16T07:25:39.370Z,-1.90
2018-12-16T07:28:09.831Z,-2.00
2018-12-16T07:30:40.488Z,-1.90
2018-12-16T07:33:10.899Z,-1.90
2018-12-16T07:35:41.305Z,-1.90
2018-12-16T07:38:11.720Z,-1.80
2018-12-16T07:40:42.124Z,-1.70
2018-12-16T07:43:13.596Z,-1.60
2018-12-16T07:45:44.478Z,-1.60
2018-12-16T07:48:14.889Z,-1.60
2018-12-16T07:50:45.720Z,-1.60
2018-12-16T07:53:16.136Z,-1.40
2018-12-16T07:55:46.734Z,-1.50
2018-12-16T07:58:17.218Z,-1.40
2018-12-16T08:00:47.871Z,-1.20
2018-12-16T08:03:18.532Z,-1.20
2018-12-16T08:05:50.344Z,-1.10
2018-12-16T08:08:22.044Z,-1.10
2018-12-16T08:10:52.516Z,-1.10
2018-12-16T08:13:22.917Z,-1.00
2018-12-16T08:15:53.447Z,-1.00
2018-12-16T08:18:23.885Z,-1.00
2018-12-16T08:20:54.507Z,-0.90
2018-12-16T08:23:25.198Z,-0.80
2018-12-16T08:25:55.810Z,-0.70
2018-12-16T08:28:26.901Z,-0.60
2018-12-16T08:30:58.407Z,-0.80
2018-12-16T08:33:29.333Z,-0.70
2018-12-16T08:36:01.193Z,-0.70
2018-12-16T08:38:33.386Z,-0.50
2018-12-16T08:41:03.811Z,-0.60
2018-12-16T08:43:34.220Z,-0.40
2018-12-16T08:46:04.655Z,-0.20
2018-12-16T08:48:35.059Z,-0.20
2018-12-16T08:51:05.580Z,-0.20
2018-12-16T08:53:36.177Z,-0.10
2018-12-16T08:56:06.581Z,-0.10
2018-12-16T08:58:37.624Z,-0.10
2018-12-16T09:01:08.002Z,0.30
2018-12-16T09:03:38.416Z,0.50
2018-12-16T09:06:08.906Z,0.40
2018-12-16T09:08:39.303Z,0.50
2018-12-16T09:11:09.877Z,0.60
2018-12-16T09:13:41.535Z,0.80
2018-12-16T09:16:12.635Z,0.80
2018-12-16T09:18:43.061Z,1.00
2018-12-16T09:21:13.951Z,1.10
2018-12-16T09:23:44.316Z,1.10
2018-12-16T09:26:14.715Z,1.10
2018-12-16T09:28:45.099Z,1.20
2018-12-16T09:31:15.470Z,1.30
2018-12-16T09:33:46.361Z,1.40
2018-12-16T09:36:18.109Z,1.30
2018-12-16T09:38:50.454Z,1.50
2018-12-16T09:41:22.387Z,1.50
2018-12-16T09:43:53.503Z,1.50
2018-12-16T09:46:24.690Z,1.80
2018-12-16T09:48:55.091Z,1.70
2018-12-16T09:51:25.637Z,1.90
2018-12-16T09:53:56.164Z,1.80
2018-12-16T09:56:26.629Z,2.00
2018-12-16T09:58:57.074Z,2.00
2018-12-16T10:01:27.468Z,1.90
2018-12-16T10:03:57.865Z,1.90
2018-12-16T10:06:28.258Z,1.90
2018-12-16T10:08:58.628Z,2.00
2018-12-16T10:11:29.024Z,1.90
2018-12-16T10:13:59.415Z,2.00
2018-12-16T10:16:29.902Z,2.00
2018-12-16T10:19:00.276Z,1.90
2018-12-16T10:21:30.659Z,2.10
2018-12-16T10:24:01.054Z,2.20
2018-12-16T10:26:31.538Z,2.10
2018-12-16T10:29:01.906Z,2.20
2018-12-16T10:31:32.409Z,2.20
2018-12-16T10:34:02.789Z,2.10
2018-12-16T10:36:33.181Z,2.10
2018-12-16T10:39:04.014Z,1.90
2018-12-16T10:41:36.130Z,1.90
2018-12-16T10:44:06.522Z,2.00
2018-12-16T10:46:36.895Z,2.00
2018-12-16T10:49:07.356Z,2.00
2018-12-16T10:51:38.806Z,2.00
2018-12-16T10:54:09.208Z,1.90
2018-12-16T10:56:39.563Z,1.80
2018-12-16T10:59:09.976Z,1.90
2018-12-16T11:01:40.611Z,2.10
2018-12-16T11:04:11.093Z,2.10
2018-12-16T11:06:41.485Z,2.10
2018-12-16T11:09:11.895Z,2.10
2018-12-16T11:11:42.282Z,2.40
2018-12-16T11:14:14.092Z,2.60
2018-12-16T11:16:44.795Z,2.70
2018-12-16T11:19:15.175Z,2.90
2018-12-16T11:21:45.585Z,2.80
2018-12-16T11:24:15.946Z,2.90
2018-12-16T11:26:46.314Z,2.80
2018-12-16T11:29:16.681Z,2.80
2018-12-16T11:31:47.061Z,2.80
2018-12-16T11:34:17.428Z,2.60
2018-12-16T11:36:47.823Z,2.70
2018-12-16T11:39:18.187Z,2.60
2018-12-16T11:41:48.584Z,2.80
2018-12-16T11:44:19.002Z,2.70
2018-12-16T11:46:50.679Z,2.70
2018-12-16T11:49:22.395Z,2.70
2018-12-16T11:51:52.946Z,2.60
2018-12-16T11:54:25.012Z,2.70
2018-12-16T11:56:55.386Z,2.70
2018-12-16T11:59:25.769Z,2.80
2018-12-16T12:01:57.137Z,2.90
2018-12-16T12:04:29.217Z,3.00
2018-12-16T12:06:59.594Z,3.10
2018-12-16T12:09:29.984Z,3.10
2018-12-16T12:12:00.757Z,3.20
2018-12-16T12:14:31.350Z,3.40
2018-12-16T12:17:01.725Z,3.60
2018-12-16T12:19:37.719Z,3.50
2018-12-16T12:22:08.110Z,3.70
2018-12-16T12:24:38.505Z,3.80
2018-12-16T12:27:08.997Z,3.90
2018-12-16T12:29:39.406Z,4.00
2018-12-16T12:32:11.315Z,3.80
2018-12-16T12:34:44.090Z,3.70
2018-12-16T12:37:14.466Z,3.70
2018-12-16T12:39:45.052Z,3.80
2018-12-16T12:42:15.452Z,3.80
2018-12-16T12:44:45.812Z,3.80
2018-12-16T12:47:16.263Z,3.80
2018-12-16T12:49:46.812Z,3.80
2018-12-16T12:52:18.337Z,3.80
2018-12-16T12:54:48.999Z,3.80
2018-12-16T12:57:19.584Z,3.90
2018-12-16T12:59:49.995Z,4.00
2018-12-16T13:02:20.878Z,3.90
2018-12-16T13:04:51.404Z,3.90
2018-12-16T13:07:21.846Z,4.00
2018-12-16T13:09:52.235Z,4.10
2018-12-16T13:12:22.615Z,4.00
2018-12-16T13:14:52.967Z,4.20
2018-12-16T13:17:23.704Z,4.20
2018-12-16T13:19:54.241Z,4.20
2018-12-16T13:22:24.694Z,4.00
2018-12-16T13:25:06.127Z,4.10
2018-12-16T13:27:36.509Z,4.20
2018-12-16T13:30:07.786Z,4.10
2018-12-16T13:32:38.829Z,4.10
2018-12-16T13:35:09.311Z,4.20
2018-12-16T13:37:39.992Z,4.30
2018-12-16T13:40:10.524Z,4.30
2018-12-16T13:42:40.984Z,4.30
2018-12-16T13:45:11.392Z,4.50
2018-12-16T13:47:41.763Z,4.20
2018-12-16T13:50:14.408Z,4.20
2018-12-16T13:52:44.838Z,4.20
2018-12-16T13:55:18.248Z,4.40
2018-12-16T13:57:49.031Z,4.30
2018-12-16T14:00:19.636Z,4.40
2018-12-16T14:02:50.450Z,4.20
2018-12-16T14:05:20.946Z,4.40
2018-12-16T14:07:54.338Z,4.50
2018-12-16T14:10:24.853Z,4.40
2018-12-16T14:12:55.357Z,4.20
2018-12-16T14:15:26.428Z,4.20
2018-12-16T14:17:59.233Z,4.00
2018-12-16T14:20:30.687Z,4.00
2018-12-16T14:23:01.902Z,4.10
2018-12-16T14:25:33.250Z,4.10
2018-12-16T14:28:04.386Z,3.90
2018-12-16T14:30:35.882Z,3.80
2018-12-16T14:33:06.468Z,3.70
2018-12-16T14:35:37.154Z,3.60
2018-12-16T14:38:08.005Z,3.60
2018-12-16T14:40:38.763Z,3.60
2018-12-16T14:43:09.428Z,3.60
2018-12-16T14:45:40.088Z,3.50
2018-12-16T14:48:10.582Z,3.40
2018-12-16T14:50:41.496Z,3.50
2018-12-16T14:53:14.851Z,3.50
2018-12-16T14:55:45.320Z,3.30
2018-12-16T14:58:16.990Z,3.20
2018-12-16T15:00:47.441Z,3.20
2018-12-16T15:03:18.061Z,3.20
2018-12-16T15:05:48.455Z,3.10
2018-12-16T15:08:18.837Z,3.10
2018-12-16T15:10:49.453Z,3.10
2018-12-16T15:13:19.849Z,3.10
2018-12-16T15:15:50.237Z,3.10
2018-12-16T15:18:20.602Z,3.00
2018-12-16T15:20:50.990Z,2.80
2018-12-16T15:23:21.469Z,2.80
2018-12-16T15:25:51.893Z,2.80
2018-12-16T15:28:22.245Z,2.80
2018-12-16T15:30:52.666Z,2.70
2018-12-16T15:33:23.122Z,2.70
2018-12-16T15:35:53.484Z,2.70
2018-12-16T15:38:23.904Z,2.70
2018-12-16T15:40:54.315Z,2.70
2018-12-16T15:43:24.693Z,2.60
2018-12-16T15:45:55.183Z,2.50
2018-12-16T15:48:25.558Z,2.40
2018-12-16T15:50:55.907Z,2.30
2018-12-16T15:53:26.297Z,2.30
2018-12-16T15:55:56.664Z,2.20
2018-12-16T15:58:27.052Z,2.20
2018-12-16T16:00:57.406Z,2.30
2018-12-16T16:03:27.867Z,2.00
2018-12-16T16:05:58.251Z,1.90
2018-12-16T16:08:28.644Z,1.90
2018-12-16T16:10:59.047Z,1.90
2018-12-16T16:13:29.433Z,1.90
2018-12-16T16:15:59.808Z,1.90
2018-12-16T16:18:30.174Z,1.80
2018-12-16T16:21:00.573Z,1.80
2018-12-16T16:23:30.998Z,1.80
2018-12-16T16:26:01.500Z,1.80
2018-12-16T16:28:32.135Z,1.70
2018-12-16T16:31:02.532Z,1.80
2018-12-16T16:33:33.003Z,1.80
2018-12-16T16:36:03.363Z,1.80
2018-12-16T16:38:33.762Z,1.80
2018-12-16T16:41:04.431Z,1.70
2018-12-16T16:43:34.925Z,1.70
2018-12-16T16:46:05.289Z,1.70
2018-12-16T16:48:35.841Z,1.70
2018-12-16T16:51:06.194Z,1.60
2018-12-16T16:53:36.625Z,1.60
2018-12-16T16:56:07.006Z,1.50
2018-12-16T16:58:37.712Z,1.50
2018-12-16T17:01:08.142Z,1.50
2018-12-16T17:03:38.581Z,1.50
2018-12-16T17:06:08.990Z,1.50
2018-12-16T17:08:41.386Z,1.40
2018-12-16T17:11:12.162Z,1.40
2018-12-16T17:13:42.603Z,1.40
2018-12-16T17:16:13.544Z,1.40
2018-12-16T17:18:44.177Z,1.50
2018-12-16T17:21:14.601Z,1.60
2018-12-16T17:23:51.419Z,1.60
2018-12-16T17:26:30.190Z,1.50
2018-12-16T17:29:00.994Z,1.50
2018-12-16T17:31:39.620Z,1.50
2018-12-16T17:34:13.806Z,1.50
2018-12-16T17:36:44.198Z,1.40
2018-12-16T17:39:14.612Z,1.40
2018-12-16T17:41:50.559Z,1.30
2018-12-16T17:44:26.431Z,1.20
2018-12-16T17:46:56.849Z,1.10
2018-12-16T17:49:28.376Z,0.90
2018-12-16T17:51:58.760Z,0.80
2018-12-16T17:54:29.240Z,0.70
2018-12-16T17:57:06.597Z,0.60
2018-12-16T17:59:37.044Z,0.60
2018-12-16T18:02:09.033Z,0.60
2018-12-16T18:04:39.658Z,0.50
2018-12-16T18:07:13.937Z,0.40
2018-12-16T18:09:51.488Z,0.30
2018-12-16T18:12:22.836Z,0.30
2018-12-16T18:14:59.732Z,0.30
2018-12-16T18:17:36.203Z,0.30
2018-12-16T18:20:13.233Z,0.20
2018-12-16T18:22:50.013Z,0.20
2018-12-16T18:25:20.411Z,0.20
2018-12-16T18:27:54.546Z,0.20
2018-12-16T18:30:24.890Z,0.20
2018-12-16T18:32:55.702Z,0.20
2018-12-16T18:35:29.698Z,0.20
2018-12-16T18:38:03.488Z,0.30
2018-12-16T18:40:33.913Z,0.40
2018-12-16T18:43:13.961Z,0.50
2018-12-16T18:45:44.332Z,0.60
2018-12-16T18:48:24.920Z,0.70
2018-12-16T18:51:01.712Z,0.70
2018-12-16T18:53:42.186Z,0.80
2018-12-16T18:56:12.587Z,0.90
2018-12-16T18:58:42.950Z,1.00
2018-12-16T19:01:13.339Z,1.00
2018-12-16T19:06:47.334Z,1.10
2018-12-16T19:09:17.750Z,1.20
2018-12-16T19:11:48.118Z,1.30
2018-12-16T19:14:22.085Z,1.30
2018-12-16T19:16:58.320Z,1.40
2018-12-16T19:19:28.709Z,1.40
2018-12-16T19:22:02.380Z,1.40
2018-12-16T19:24:37.142Z,1.40
2018-12-16T19:27:09.388Z,1.40
2018-12-16T19:29:45.677Z,1.30
2018-12-16T19:32:25.848Z,1.30
2018-12-16T19:35:00.085Z,1.40
2018-12-16T19:37:36.168Z,1.30
2018-12-16T19:40:06.901Z,1.40
2018-12-16T19:42:38.801Z,1.40
2018-12-16T19:45:09.524Z,1.40
2018-12-16T19:47:49.437Z,1.40
2018-12-16T19:50:15.154Z,1.40
2018-12-16T19:52:52.338Z,1.40
2018-12-16T19:55:41.795Z,1.40
2018-12-16T19:58:12.351Z,1.50
2018-12-16T20:00:42.935Z,1.50
2018-12-16T20:03:13.421Z,1.50
2018-12-16T20:05:49.690Z,1.40
2018-12-16T20:08:23.615Z,1.50
2018-12-16T20:10:55.500Z,1.50
2018-12-16T20:13:30.912Z,1.50
2018-12-16T20:16:05.886Z,1.60
2018-12-16T20:18:42.638Z,1.50
2018-12-16T20:21:14.680Z,1.50
2018-12-16T20:23:45.532Z,1.60
2018-12-16T20:26:16.348Z,1.70
2018-12-16T20:28:48.159Z,1.70
2018-12-16T20:31:25.412Z,1.70
2018-12-16T20:33:55.989Z,1.60
2018-12-16T20:36:29.565Z,1.50
2018-12-16T20:39:04.584Z,1.50
2018-12-16T20:41:45.097Z,1.50
2018-12-16T20:44:15.526Z,1.40
2018-12-16T20:47:04.192Z,1.30
2018-12-16T20:49:34.568Z,1.30
2018-12-16T20:52:05.036Z,1.20
2018-12-16T20:54:35.409Z,1.10
2018-12-16T20:57:05.918Z,1.10
2018-12-16T20:59:37.540Z,1.00
2018-12-16T21:02:10.627Z,1.00
2018-12-16T21:04:42.620Z,1.10
2018-12-16T21:07:13.240Z,1.10
2018-12-16T21:09:43.811Z,1.10
2018-12-16T21:12:19.653Z,1.10
2018-12-16T21:14:55.507Z,1.10
2018-12-16T21:17:31.195Z,1.00
2018-12-16T21:20:01.666Z,1.00
2018-12-16T21:22:40.895Z,0.90
2018-12-16T21:25:18.187Z,0.90
2018-12-16T21:27:59.027Z,0.90
2018-12-16T21:30:43.316Z,0.90
2018-12-16T21:33:26.176Z,0.90
2018-12-16T21:36:03.419Z,0.90
2018-12-16T21:38:43.491Z,0.80
2018-12-16T21:41:22.985Z,0.80
2018-12-16T21:44:03.352Z,0.90
2018-12-16T21:46:34.915Z,0.80
2018-12-16T21:52:02.596Z,0.80
2018-12-16T21:54:35.733Z,0.70
2018-12-16T21:57:06.200Z,0.80
2018-12-16T21:59:38.129Z,0.80
2018-12-16T22:02:15.218Z,0.80
2018-12-16T22:04:51.519Z,0.90
2018-12-16T22:07:24.136Z,0.90
2018-12-16T22:09:56.278Z,0.90
2018-12-16T22:12:32.595Z,0.90
2018-12-16T22:18:14.523Z,0.90
2018-12-16T22:20:55.601Z,0.90
2018-12-16T22:23:34.341Z,0.90
2018-12-16T22:26:14.954Z,0.90
2018-12-16T22:28:55.130Z,0.90
2018-12-16T22:31:32.282Z,0.80
2018-12-16T22:34:20.574Z,0.90
2018-12-16T22:37:04.469Z,0.90
2018-12-16T22:39:48.733Z,0.90
2018-12-16T22:42:27.398Z,0.90
2018-12-16T22:45:05.374Z,0.90
2018-12-16T22:47:46.360Z,0.90
2018-12-16T22:53:29.153Z,1.10
2018-12-16T22:56:13.276Z,1.20
2018-12-16T22:58:54.285Z,1.20
2018-12-16T23:01:26.790Z,1.30
2018-12-16T23:04:07.091Z,1.40
2018-12-16T23:06:37.597Z,1.40
2018-12-16T23:09:18.157Z,1.50
2018-12-16T23:11:54.447Z,1.50
2018-12-16T23:14:28.260Z,1.50
2018-12-16T23:17:06.884Z,1.50
2018-12-16T23:19:51.008Z,1.50
2018-12-16T23:22:27.660Z,1.40
2018-12-16T23:25:07.504Z,1.40
2018-12-16T23:27:44.026Z,1.30
2018-12-16T23:30:20.578Z,1.30
2018-12-16T23:32:50.946Z,1.30
2018-12-16T23:35:22.196Z,1.30
2018-12-16T23:38:02.859Z,1.40
2018-12-16T23:40:43.627Z,1.40
2018-12-16T23:43:19.852Z,1.40
2018-12-16T23:45:51.981Z,1.40
2018-12-16T23:48:28.778Z,1.40
2018-12-16T23:51:09.285Z,1.40
2018-12-16T23:53:46.943Z,1.30
2018-12-16T23:56:21.151Z,1.10
2018-12-16T23:58:57.430Z,1.00
